sensor_id;sensor_type;location;lat;lon;timestamp;temperature;humidity
83405;SHT30;73331;48.168;20.776;2024-01-06T00:00:24;6.16;87.56
83405;SHT30;73331;48.168;20.776;2024-01-06T00:01:54;6.13;87.65
83405;SHT30;73331;48.168;20.776;2024-01-06T00:03:25;6.13;87.91
83405;SHT30;73331;48.168;20.776;2024-01-06T00:04:55;5.99;88.28
83405;SHT30;73331;48.168;20.776;2024-01-06T00:06:26;5.95;88.14
83405;SHT30;73331;48.168;20.776;2024-01-06T00:07:56;5.80;88.71
83405;SHT30;73331;48.168;20.776;2024-01-06T00:09:27;5.90;88.71
83405;SHT30;73331;48.168;20.776;2024-01-06T00:10:57;5.92;88.33
83405;SHT30;73331;48.168;20.776;2024-01-06T00:12:28;5.83;88.89
83405;SHT30;73331;48.168;20.776;2024-01-06T00:13:58;5.82;89.28
83405;SHT30;73331;48.168;20.776;2024-01-06T00:15:29;5.83;89.13
83405;SHT30;73331;48.168;20.776;2024-01-06T00:17:00;5.92;88.88
83405;SHT30;73331;48.168;20.776;2024-01-06T00:18:30;5.80;88.96
83405;SHT30;73331;48.168;20.776;2024-01-06T00:20:01;5.83;89.18
83405;SHT30;73331;48.168;20.776;2024-01-06T00:21:32;6.20;87.86
83405;SHT30;73331;48.168;20.776;2024-01-06T00:23:03;6.21;87.45
83405;SHT30;73331;48.168;20.776;2024-01-06T00:24:33;6.19;87.70
83405;SHT30;73331;48.168;20.776;2024-01-06T00:26:04;6.09;87.57
83405;SHT30;73331;48.168;20.776;2024-01-06T00:27:35;5.99;88.30
83405;SHT30;73331;48.168;20.776;2024-01-06T00:29:05;5.98;88.33
83405;SHT30;73331;48.168;20.776;2024-01-06T00:30:36;5.90;88.83
83405;SHT30;73331;48.168;20.776;2024-01-06T00:32:06;6.24;87.82
83405;SHT30;73331;48.168;20.776;2024-01-06T00:33:37;6.33;87.24
83405;SHT30;73331;48.168;20.776;2024-01-06T00:35:07;6.23;87.60
83405;SHT30;73331;48.168;20.776;2024-01-06T00:36:38;6.19;87.49
83405;SHT30;73331;48.168;20.776;2024-01-06T00:38:09;6.26;87.28
83405;SHT30;73331;48.168;20.776;2024-01-06T00:39:39;6.31;87.04
83405;SHT30;73331;48.168;20.776;2024-01-06T00:41:10;6.31;86.76
83405;SHT30;73331;48.168;20.776;2024-01-06T00:42:40;6.61;85.82
83405;SHT30;73331;48.168;20.776;2024-01-06T00:44:11;6.58;85.35
83405;SHT30;73331;48.168;20.776;2024-01-06T00:45:42;6.38;86.09
83405;SHT30;73331;48.168;20.776;2024-01-06T00:47:12;6.26;86.98
83405;SHT30;73331;48.168;20.776;2024-01-06T00:48:42;6.48;86.21
83405;SHT30;73331;48.168;20.776;2024-01-06T00:50:13;6.57;85.66
83405;SHT30;73331;48.168;20.776;2024-01-06T00:51:44;6.75;84.53
83405;SHT30;73331;48.168;20.776;2024-01-06T00:53:14;6.84;83.93
83405;SHT30;73331;48.168;20.776;2024-01-06T00:54:45;6.88;83.41
83405;SHT30;73331;48.168;20.776;2024-01-06T00:56:17;6.87;83.33
83405;SHT30;73331;48.168;20.776;2024-01-06T00:57:48;6.58;84.36
83405;SHT30;73331;48.168;20.776;2024-01-06T00:59:18;6.34;85.05
83405;SHT30;73331;48.168;20.776;2024-01-06T01:00:49;6.21;85.97
83405;SHT30;73331;48.168;20.776;2024-01-06T01:02:20;6.30;85.77
83405;SHT30;73331;48.168;20.776;2024-01-06T01:03:51;6.38;85.33
83405;SHT30;73331;48.168;20.776;2024-01-06T01:05:21;6.37;85.28
83405;SHT30;73331;48.168;20.776;2024-01-06T01:06:52;6.37;85.46
83405;SHT30;73331;48.168;20.776;2024-01-06T01:08:23;6.24;86.02
83405;SHT30;73331;48.168;20.776;2024-01-06T01:09:53;6.05;87.05
83405;SHT30;73331;48.168;20.776;2024-01-06T01:11:24;5.99;87.42
83405;SHT30;73331;48.168;20.776;2024-01-06T01:12:54;5.85;87.57
83405;SHT30;73331;48.168;20.776;2024-01-06T01:14:25;5.78;88.11
83405;SHT30;73331;48.168;20.776;2024-01-06T01:15:55;5.72;88.61
83405;SHT30;73331;48.168;20.776;2024-01-06T01:17:26;5.75;88.85
83405;SHT30;73331;48.168;20.776;2024-01-06T01:18:57;5.70;88.94
83405;SHT30;73331;48.168;20.776;2024-01-06T01:20:27;5.78;88.94
83405;SHT30;73331;48.168;20.776;2024-01-06T01:21:58;5.70;89.10
83405;SHT30;73331;48.168;20.776;2024-01-06T01:23:28;5.63;89.41
83405;SHT30;73331;48.168;20.776;2024-01-06T01:24:59;5.65;89.43
83405;SHT30;73331;48.168;20.776;2024-01-06T01:26:35;5.66;89.53
83405;SHT30;73331;48.168;20.776;2024-01-06T01:28:06;5.66;89.36
83405;SHT30;73331;48.168;20.776;2024-01-06T01:29:36;5.78;89.31
83405;SHT30;73331;48.168;20.776;2024-01-06T01:31:07;5.75;89.09
83405;SHT30;73331;48.168;20.776;2024-01-06T01:32:38;5.75;88.98
83405;SHT30;73331;48.168;20.776;2024-01-06T01:34:08;5.68;88.73
83405;SHT30;73331;48.168;20.776;2024-01-06T01:35:39;5.63;88.82
83405;SHT30;73331;48.168;20.776;2024-01-06T01:37:09;5.58;89.08
83405;SHT30;73331;48.168;20.776;2024-01-06T01:38:40;5.54;89.32
83405;SHT30;73331;48.168;20.776;2024-01-06T01:40:11;5.55;89.19
83405;SHT30;73331;48.168;20.776;2024-01-06T01:41:42;5.55;89.59
83405;SHT30;73331;48.168;20.776;2024-01-06T01:43:20;5.56;89.71
83405;SHT30;73331;48.168;20.776;2024-01-06T01:44:50;5.58;89.57
83405;SHT30;73331;48.168;20.776;2024-01-06T01:46:21;5.72;89.46
83405;SHT30;73331;48.168;20.776;2024-01-06T01:47:52;5.65;89.10
83405;SHT30;73331;48.168;20.776;2024-01-06T01:49:22;5.63;89.02
83405;SHT30;73331;48.168;20.776;2024-01-06T01:50:54;5.58;89.20
83405;SHT30;73331;48.168;20.776;2024-01-06T01:52:24;5.55;89.55
83405;SHT30;73331;48.168;20.776;2024-01-06T01:53:57;5.55;89.58
83405;SHT30;73331;48.168;20.776;2024-01-06T01:55:28;5.56;89.67
83405;SHT30;73331;48.168;20.776;2024-01-06T01:56:58;5.55;89.63
83405;SHT30;73331;48.168;20.776;2024-01-06T01:58:29;5.56;89.65
83405;SHT30;73331;48.168;20.776;2024-01-06T02:00:01;5.59;89.71
83405;SHT30;73331;48.168;20.776;2024-01-06T02:01:32;5.63;89.35
83405;SHT30;73331;48.168;20.776;2024-01-06T02:03:04;5.65;89.16
83405;SHT30;73331;48.168;20.776;2024-01-06T02:04:35;5.69;88.68
83405;SHT30;73331;48.168;20.776;2024-01-06T02:06:06;5.78;88.66
83405;SHT30;73331;48.168;20.776;2024-01-06T02:07:36;5.79;88.27
83405;SHT30;73331;48.168;20.776;2024-01-06T02:09:07;5.78;88.13
83405;SHT30;73331;48.168;20.776;2024-01-06T02:10:37;5.66;88.38
83405;SHT30;73331;48.168;20.776;2024-01-06T02:12:08;5.55;88.65
83405;SHT30;73331;48.168;20.776;2024-01-06T02:13:39;5.56;88.48
83405;SHT30;73331;48.168;20.776;2024-01-06T02:15:09;5.51;88.46
83405;SHT30;73331;48.168;20.776;2024-01-06T02:16:40;5.45;88.75
83405;SHT30;73331;48.168;20.776;2024-01-06T02:18:10;5.32;88.95
83405;SHT30;73331;48.168;20.776;2024-01-06T02:19:41;5.24;89.05
83405;SHT30;73331;48.168;20.776;2024-01-06T02:21:11;5.17;89.29
83405;SHT30;73331;48.168;20.776;2024-01-06T02:22:43;5.11;89.77
83405;SHT30;73331;48.168;20.776;2024-01-06T02:24:14;5.05;89.92
83405;SHT30;73331;48.168;20.776;2024-01-06T02:25:44;4.97;90.28
83405;SHT30;73331;48.168;20.776;2024-01-06T02:27:15;4.95;90.51
83405;SHT30;73331;48.168;20.776;2024-01-06T02:28:46;4.91;90.26
83405;SHT30;73331;48.168;20.776;2024-01-06T02:30:18;4.87;90.25
83405;SHT30;73331;48.168;20.776;2024-01-06T02:31:48;4.87;90.25
83405;SHT30;73331;48.168;20.776;2024-01-06T02:33:19;4.81;90.20
83405;SHT30;73331;48.168;20.776;2024-01-06T02:34:49;4.91;90.00
83405;SHT30;73331;48.168;20.776;2024-01-06T02:36:20;5.03;89.69
83405;SHT30;73331;48.168;20.776;2024-01-06T02:37:50;5.13;89.37
83405;SHT30;73331;48.168;20.776;2024-01-06T02:39:21;5.20;89.12
83405;SHT30;73331;48.168;20.776;2024-01-06T02:40:54;5.38;88.29
83405;SHT30;73331;48.168;20.776;2024-01-06T02:42:24;5.31;88.23
83405;SHT30;73331;48.168;20.776;2024-01-06T02:43:55;5.38;88.00
83405;SHT30;73331;48.168;20.776;2024-01-06T02:45:26;5.13;88.34
83405;SHT30;73331;48.168;20.776;2024-01-06T02:46:57;5.05;88.93
83405;SHT30;73331;48.168;20.776;2024-01-06T02:48:27;5.01;89.45
83405;SHT30;73331;48.168;20.776;2024-01-06T02:50:01;4.98;90.22
83405;SHT30;73331;48.168;20.776;2024-01-06T02:51:31;5.01;90.43
83405;SHT30;73331;48.168;20.776;2024-01-06T02:53:03;5.03;90.52
83405;SHT30;73331;48.168;20.776;2024-01-06T02:54:33;5.08;90.13
83405;SHT30;73331;48.168;20.776;2024-01-06T02:56:04;5.05;90.02
83405;SHT30;73331;48.168;20.776;2024-01-06T02:57:34;5.11;90.28
83405;SHT30;73331;48.168;20.776;2024-01-06T02:59:06;5.11;90.00
83405;SHT30;73331;48.168;20.776;2024-01-06T03:00:36;5.05;89.80
83405;SHT30;73331;48.168;20.776;2024-01-06T03:02:07;5.17;89.68
83405;SHT30;73331;48.168;20.776;2024-01-06T03:03:37;5.32;88.68
83405;SHT30;73331;48.168;20.776;2024-01-06T03:05:09;5.39;87.84
83405;SHT30;73331;48.168;20.776;2024-01-06T03:06:39;5.20;87.96
83405;SHT30;73331;48.168;20.776;2024-01-06T03:08:10;5.03;88.54
83405;SHT30;73331;48.168;20.776;2024-01-06T03:09:41;4.97;88.95
83405;SHT30;73331;48.168;20.776;2024-01-06T03:11:11;4.93;89.39
83405;SHT30;73331;48.168;20.776;2024-01-06T03:12:42;4.90;89.41
83405;SHT30;73331;48.168;20.776;2024-01-06T03:14:12;4.90;89.54
83405;SHT30;73331;48.168;20.776;2024-01-06T03:15:43;4.90;89.67
83405;SHT30;73331;48.168;20.776;2024-01-06T03:17:14;4.90;89.57
83405;SHT30;73331;48.168;20.776;2024-01-06T03:18:44;4.95;89.46
83405;SHT30;73331;48.168;20.776;2024-01-06T03:20:17;4.93;89.36
83405;SHT30;73331;48.168;20.776;2024-01-06T03:21:47;4.88;89.51
83405;SHT30;73331;48.168;20.776;2024-01-06T03:23:18;4.83;89.65
83405;SHT30;73331;48.168;20.776;2024-01-06T03:24:48;4.91;89.77
83405;SHT30;73331;48.168;20.776;2024-01-06T03:26:19;5.04;89.68
83405;SHT30;73331;48.168;20.776;2024-01-06T03:27:49;5.07;89.38
83405;SHT30;73331;48.168;20.776;2024-01-06T03:29:20;5.07;89.03
83405;SHT30;73331;48.168;20.776;2024-01-06T03:30:51;5.03;88.78
83405;SHT30;73331;48.168;20.776;2024-01-06T03:32:21;5.08;88.77
83405;SHT30;73331;48.168;20.776;2024-01-06T03:33:52;4.93;88.89
83405;SHT30;73331;48.168;20.776;2024-01-06T03:35:24;4.95;89.16
83405;SHT30;73331;48.168;20.776;2024-01-06T03:36:55;4.94;89.25
83405;SHT30;73331;48.168;20.776;2024-01-06T03:38:25;5.04;89.21
83405;SHT30;73331;48.168;20.776;2024-01-06T03:39:56;5.04;89.09
83405;SHT30;73331;48.168;20.776;2024-01-06T03:41:26;5.24;89.03
83405;SHT30;73331;48.168;20.776;2024-01-06T03:42:57;5.42;88.21
83405;SHT30;73331;48.168;20.776;2024-01-06T03:44:27;5.31;88.23
83405;SHT30;73331;48.168;20.776;2024-01-06T03:46:00;5.51;87.94
83405;SHT30;73331;48.168;20.776;2024-01-06T03:47:31;5.75;86.90
83405;SHT30;73331;48.168;20.776;2024-01-06T03:49:02;5.85;86.31
83405;SHT30;73331;48.168;20.776;2024-01-06T03:50:32;5.98;85.79
83405;SHT30;73331;48.168;20.776;2024-01-06T03:52:03;5.82;85.94
83405;SHT30;73331;48.168;20.776;2024-01-06T03:53:33;5.63;86.84
83405;SHT30;73331;48.168;20.776;2024-01-06T03:55:05;5.44;87.50
83405;SHT30;73331;48.168;20.776;2024-01-06T03:56:36;5.28;88.10
83405;SHT30;73331;48.168;20.776;2024-01-06T03:58:06;5.23;88.34
83405;SHT30;73331;48.168;20.776;2024-01-06T03:59:37;5.05;88.81
83405;SHT30;73331;48.168;20.776;2024-01-06T04:01:07;5.01;89.09
83405;SHT30;73331;48.168;20.776;2024-01-06T04:02:38;4.98;89.18
83405;SHT30;73331;48.168;20.776;2024-01-06T04:04:08;4.94;89.17
83405;SHT30;73331;48.168;20.776;2024-01-06T04:05:39;4.91;89.50
83405;SHT30;73331;48.168;20.776;2024-01-06T04:07:09;5.01;89.52
83405;SHT30;73331;48.168;20.776;2024-01-06T04:08:40;5.07;89.50
83405;SHT30;73331;48.168;20.776;2024-01-06T04:10:13;5.05;89.36
83405;SHT30;73331;48.168;20.776;2024-01-06T04:11:44;5.17;89.13
83405;SHT30;73331;48.168;20.776;2024-01-06T04:13:15;5.14;88.84
83405;SHT30;73331;48.168;20.776;2024-01-06T04:14:46;5.05;88.97
83405;SHT30;73331;48.168;20.776;2024-01-06T04:16:16;5.05;89.01
83405;SHT30;73331;48.168;20.776;2024-01-06T04:17:48;5.04;88.95
83405;SHT30;73331;48.168;20.776;2024-01-06T04:19:19;5.04;89.01
83405;SHT30;73331;48.168;20.776;2024-01-06T04:20:50;5.05;88.93
83405;SHT30;73331;48.168;20.776;2024-01-06T04:22:21;5.07;88.90
83405;SHT30;73331;48.168;20.776;2024-01-06T04:23:52;5.08;88.98
83405;SHT30;73331;48.168;20.776;2024-01-06T04:25:22;5.11;88.92
83405;SHT30;73331;48.168;20.776;2024-01-06T04:26:53;5.10;89.00
83405;SHT30;73331;48.168;20.776;2024-01-06T04:28:23;5.20;88.68
83405;SHT30;73331;48.168;20.776;2024-01-06T04:29:54;5.21;88.61
83405;SHT30;73331;48.168;20.776;2024-01-06T04:31:25;5.21;88.69
83405;SHT30;73331;48.168;20.776;2024-01-06T04:32:55;5.35;88.49
83405;SHT30;73331;48.168;20.776;2024-01-06T04:34:27;5.32;88.28
83405;SHT30;73331;48.168;20.776;2024-01-06T04:35:58;5.35;88.21
83405;SHT30;73331;48.168;20.776;2024-01-06T04:37:29;5.30;88.34
83405;SHT30;73331;48.168;20.776;2024-01-06T04:38:59;5.31;88.46
83405;SHT30;73331;48.168;20.776;2024-01-06T04:40:30;5.32;88.09
83405;SHT30;73331;48.168;20.776;2024-01-06T04:42:01;5.39;88.05
83405;SHT30;73331;48.168;20.776;2024-01-06T04:43:31;5.37;88.04
83405;SHT30;73331;48.168;20.776;2024-01-06T04:45:02;5.35;88.15
83405;SHT30;73331;48.168;20.776;2024-01-06T04:46:33;5.34;88.19
83405;SHT30;73331;48.168;20.776;2024-01-06T04:48:04;5.37;88.16
83405;SHT30;73331;48.168;20.776;2024-01-06T04:49:35;5.37;88.05
83405;SHT30;73331;48.168;20.776;2024-01-06T04:51:05;5.32;88.16
83405;SHT30;73331;48.168;20.776;2024-01-06T04:52:39;5.34;88.16
83405;SHT30;73331;48.168;20.776;2024-01-06T04:54:10;5.32;88.17
83405;SHT30;73331;48.168;20.776;2024-01-06T04:55:40;5.27;88.32
83405;SHT30;73331;48.168;20.776;2024-01-06T04:57:11;5.32;88.21
83405;SHT30;73331;48.168;20.776;2024-01-06T04:58:41;5.35;88.10
83405;SHT30;73331;48.168;20.776;2024-01-06T05:00:12;5.32;88.02
83405;SHT30;73331;48.168;20.776;2024-01-06T05:01:43;5.32;88.00
83405;SHT30;73331;48.168;20.776;2024-01-06T05:03:13;5.34;88.02
83405;SHT30;73331;48.168;20.776;2024-01-06T05:04:44;5.39;88.02
83405;SHT30;73331;48.168;20.776;2024-01-06T05:06:15;5.48;87.64
83405;SHT30;73331;48.168;20.776;2024-01-06T05:07:45;5.51;87.30
83405;SHT30;73331;48.168;20.776;2024-01-06T05:09:16;5.55;87.09
83405;SHT30;73331;48.168;20.776;2024-01-06T05:10:46;5.51;87.09
83405;SHT30;73331;48.168;20.776;2024-01-06T05:12:17;5.44;87.34
83405;SHT30;73331;48.168;20.776;2024-01-06T05:13:48;5.35;87.54
83405;SHT30;73331;48.168;20.776;2024-01-06T05:15:18;5.35;87.68
83405;SHT30;73331;48.168;20.776;2024-01-06T05:16:49;5.39;87.60
83405;SHT30;73331;48.168;20.776;2024-01-06T05:18:19;5.38;87.53
83405;SHT30;73331;48.168;20.776;2024-01-06T05:19:50;5.44;87.47
83405;SHT30;73331;48.168;20.776;2024-01-06T05:21:20;5.48;87.29
83405;SHT30;73331;48.168;20.776;2024-01-06T05:22:51;5.51;86.95
83405;SHT30;73331;48.168;20.776;2024-01-06T05:24:22;5.66;86.15
83405;SHT30;73331;48.168;20.776;2024-01-06T05:25:52;5.66;86.01
83405;SHT30;73331;48.168;20.776;2024-01-06T05:27:23;5.68;85.38
83405;SHT30;73331;48.168;20.776;2024-01-06T05:28:54;5.66;85.32
83405;SHT30;73331;48.168;20.776;2024-01-06T05:30:24;5.60;85.61
83405;SHT30;73331;48.168;20.776;2024-01-06T05:31:55;5.72;86.01
83405;SHT30;73331;48.168;20.776;2024-01-06T05:33:25;5.88;85.53
83405;SHT30;73331;48.168;20.776;2024-01-06T05:34:56;5.99;84.96
83405;SHT30;73331;48.168;20.776;2024-01-06T05:36:27;6.19;84.08
83405;SHT30;73331;48.168;20.776;2024-01-06T05:37:57;6.45;82.87
83405;SHT30;73331;48.168;20.776;2024-01-06T05:39:28;6.54;82.18
83405;SHT30;73331;48.168;20.776;2024-01-06T05:40:58;6.58;82.13
83405;SHT30;73331;48.168;20.776;2024-01-06T05:42:29;6.31;82.85
83405;SHT30;73331;48.168;20.776;2024-01-06T05:43:59;6.16;83.44
83405;SHT30;73331;48.168;20.776;2024-01-06T05:45:30;6.21;83.44
83405;SHT30;73331;48.168;20.776;2024-01-06T05:47:00;6.07;83.93
83405;SHT30;73331;48.168;20.776;2024-01-06T05:48:31;5.80;84.90
83405;SHT30;73331;48.168;20.776;2024-01-06T05:50:01;5.45;86.23
83405;SHT30;73331;48.168;20.776;2024-01-06T05:51:32;5.35;86.99
83405;SHT30;73331;48.168;20.776;2024-01-06T05:53:03;5.42;87.23
83405;SHT30;73331;48.168;20.776;2024-01-06T05:54:33;5.60;86.58
83405;SHT30;73331;48.168;20.776;2024-01-06T05:56:04;5.65;86.16
83405;SHT30;73331;48.168;20.776;2024-01-06T05:57:35;5.83;85.48
83405;SHT30;73331;48.168;20.776;2024-01-06T05:59:05;5.95;84.90
83405;SHT30;73331;48.168;20.776;2024-01-06T06:00:36;5.59;85.87
83405;SHT30;73331;48.168;20.776;2024-01-06T06:02:06;5.51;86.50
83405;SHT30;73331;48.168;20.776;2024-01-06T06:03:37;5.59;86.37
83405;SHT30;73331;48.168;20.776;2024-01-06T06:05:07;5.68;85.98
83405;SHT30;73331;48.168;20.776;2024-01-06T06:06:38;5.60;85.87
83405;SHT30;73331;48.168;20.776;2024-01-06T06:08:09;5.47;86.12
83405;SHT30;73331;48.168;20.776;2024-01-06T06:09:39;5.32;86.88
83405;SHT30;73331;48.168;20.776;2024-01-06T06:11:10;5.51;86.67
83405;SHT30;73331;48.168;20.776;2024-01-06T06:12:41;5.70;85.90
83405;SHT30;73331;48.168;20.776;2024-01-06T06:14:11;5.62;86.07
83405;SHT30;73331;48.168;20.776;2024-01-06T06:15:43;5.51;86.14
83405;SHT30;73331;48.168;20.776;2024-01-06T06:17:14;5.45;86.52
83405;SHT30;73331;48.168;20.776;2024-01-06T06:18:44;5.35;87.02
83405;SHT30;73331;48.168;20.776;2024-01-06T06:20:15;5.20;87.53
83405;SHT30;73331;48.168;20.776;2024-01-06T06:21:45;5.23;87.72
83405;SHT30;73331;48.168;20.776;2024-01-06T06:23:16;5.28;87.56
83405;SHT30;73331;48.168;20.776;2024-01-06T06:24:46;5.30;87.38
83405;SHT30;73331;48.168;20.776;2024-01-06T06:26:17;5.30;87.40
83405;SHT30;73331;48.168;20.776;2024-01-06T06:27:48;5.34;87.35
83405;SHT30;73331;48.168;20.776;2024-01-06T06:29:18;5.51;86.52
83405;SHT30;73331;48.168;20.776;2024-01-06T06:30:51;5.65;85.75
83405;SHT30;73331;48.168;20.776;2024-01-06T06:32:21;5.73;85.07
83405;SHT30;73331;48.168;20.776;2024-01-06T06:33:52;5.59;85.20
83405;SHT30;73331;48.168;20.776;2024-01-06T06:35:23;5.58;85.44
83405;SHT30;73331;48.168;20.776;2024-01-06T06:36:54;5.48;85.98
83405;SHT30;73331;48.168;20.776;2024-01-06T06:38:25;5.39;86.21
83405;SHT30;73331;48.168;20.776;2024-01-06T06:39:56;5.48;85.75
83405;SHT30;73331;48.168;20.776;2024-01-06T06:41:27;5.56;85.40
83405;SHT30;73331;48.168;20.776;2024-01-06T06:42:57;5.52;85.07
83405;SHT30;73331;48.168;20.776;2024-01-06T06:44:28;5.52;85.38
83405;SHT30;73331;48.168;20.776;2024-01-06T06:46:00;5.56;85.18
83405;SHT30;73331;48.168;20.776;2024-01-06T06:47:30;5.65;84.92
83405;SHT30;73331;48.168;20.776;2024-01-06T06:49:00;5.66;84.75
83405;SHT30;73331;48.168;20.776;2024-01-06T06:50:31;5.65;84.48
83405;SHT30;73331;48.168;20.776;2024-01-06T06:52:02;5.69;84.63
83405;SHT30;73331;48.168;20.776;2024-01-06T06:53:34;5.79;84.26
83405;SHT30;73331;48.168;20.776;2024-01-06T06:55:04;5.70;84.98
83405;SHT30;73331;48.168;20.776;2024-01-06T06:56:36;5.70;84.89
83405;SHT30;73331;48.168;20.776;2024-01-06T06:58:06;5.83;84.37
83405;SHT30;73331;48.168;20.776;2024-01-06T06:59:37;5.90;83.90
83405;SHT30;73331;48.168;20.776;2024-01-06T07:01:07;6.02;83.44
83405;SHT30;73331;48.168;20.776;2024-01-06T07:02:38;6.16;83.12
83405;SHT30;73331;48.168;20.776;2024-01-06T07:04:09;6.06;82.99
83405;SHT30;73331;48.168;20.776;2024-01-06T07:05:39;5.98;83.45
83405;SHT30;73331;48.168;20.776;2024-01-06T07:07:10;6.03;83.26
83405;SHT30;73331;48.168;20.776;2024-01-06T07:08:40;5.88;84.11
83405;SHT30;73331;48.168;20.776;2024-01-06T07:10:12;6.06;83.92
83405;SHT30;73331;48.168;20.776;2024-01-06T07:11:43;6.13;83.61
83405;SHT30;73331;48.168;20.776;2024-01-06T07:13:14;5.95;84.31
83405;SHT30;73331;48.168;20.776;2024-01-06T07:14:44;5.79;84.97
83405;SHT30;73331;48.168;20.776;2024-01-06T07:16:15;5.76;84.51
83405;SHT30;73331;48.168;20.776;2024-01-06T07:17:46;5.83;84.53
83405;SHT30;73331;48.168;20.776;2024-01-06T07:19:16;5.80;84.28
83405;SHT30;73331;48.168;20.776;2024-01-06T07:20:47;5.86;83.71
83405;SHT30;73331;48.168;20.776;2024-01-06T07:22:18;5.95;83.31
83405;SHT30;73331;48.168;20.776;2024-01-06T07:23:48;5.88;83.59
83405;SHT30;73331;48.168;20.776;2024-01-06T07:25:19;6.02;83.23
83405;SHT30;73331;48.168;20.776;2024-01-06T07:26:49;6.06;82.23
83405;SHT30;73331;48.168;20.776;2024-01-06T07:28:20;6.00;82.72
83405;SHT30;73331;48.168;20.776;2024-01-06T07:29:51;6.29;82.55
83405;SHT30;73331;48.168;20.776;2024-01-06T07:31:21;6.07;83.32
83405;SHT30;73331;48.168;20.776;2024-01-06T07:32:52;6.00;82.91
83405;SHT30;73331;48.168;20.776;2024-01-06T07:34:23;5.93;84.18
83405;SHT30;73331;48.168;20.776;2024-01-06T07:35:54;6.10;83.80
83405;SHT30;73331;48.168;20.776;2024-01-06T07:37:24;6.14;82.50
83405;SHT30;73331;48.168;20.776;2024-01-06T07:38:56;6.17;83.23
83405;SHT30;73331;48.168;20.776;2024-01-06T07:40:26;6.55;82.40
83405;SHT30;73331;48.168;20.776;2024-01-06T07:41:57;6.88;81.04
83405;SHT30;73331;48.168;20.776;2024-01-06T07:43:27;7.02;80.24
83405;SHT30;73331;48.168;20.776;2024-01-06T07:44:58;7.09;80.27
83405;SHT30;73331;48.168;20.776;2024-01-06T07:46:29;7.14;79.95
83405;SHT30;73331;48.168;20.776;2024-01-06T07:48:00;6.94;80.20
83405;SHT30;73331;48.168;20.776;2024-01-06T07:49:30;6.78;81.05
83405;SHT30;73331;48.168;20.776;2024-01-06T07:51:02;6.83;81.06
83405;SHT30;73331;48.168;20.776;2024-01-06T07:52:33;6.78;81.28
83405;SHT30;73331;48.168;20.776;2024-01-06T07:54:04;6.77;81.81
83405;SHT30;73331;48.168;20.776;2024-01-06T07:55:36;6.81;81.84
83405;SHT30;73331;48.168;20.776;2024-01-06T07:57:07;6.78;81.53
83405;SHT30;73331;48.168;20.776;2024-01-06T07:58:38;6.60;82.29
83405;SHT30;73331;48.168;20.776;2024-01-06T08:00:09;6.57;82.30
83405;SHT30;73331;48.168;20.776;2024-01-06T08:01:40;6.91;81.06
83405;SHT30;73331;48.168;20.776;2024-01-06T08:03:13;7.30;79.36
83405;SHT30;73331;48.168;20.776;2024-01-06T08:04:44;7.50;78.48
83405;SHT30;73331;48.168;20.776;2024-01-06T08:06:15;7.55;78.12
83405;SHT30;73331;48.168;20.776;2024-01-06T08:07:46;7.60;78.05
83405;SHT30;73331;48.168;20.776;2024-01-06T08:09:16;7.36;78.99
83405;SHT30;73331;48.168;20.776;2024-01-06T08:10:47;7.46;78.84
83405;SHT30;73331;48.168;20.776;2024-01-06T08:12:19;7.59;78.45
83405;SHT30;73331;48.168;20.776;2024-01-06T08:13:49;7.66;78.02
83405;SHT30;73331;48.168;20.776;2024-01-06T08:15:20;7.66;77.52
83405;SHT30;73331;48.168;20.776;2024-01-06T08:16:51;7.58;77.90
83405;SHT30;73331;48.168;20.776;2024-01-06T08:18:21;7.58;77.66
83405;SHT30;73331;48.168;20.776;2024-01-06T08:19:52;7.53;77.68
83405;SHT30;73331;48.168;20.776;2024-01-06T08:21:22;7.60;77.77
83405;SHT30;73331;48.168;20.776;2024-01-06T08:22:53;7.70;77.57
83405;SHT30;73331;48.168;20.776;2024-01-06T08:24:23;7.66;77.74
83405;SHT30;73331;48.168;20.776;2024-01-06T08:25:56;7.53;77.44
83405;SHT30;73331;48.168;20.776;2024-01-06T08:27:26;7.02;79.87
83405;SHT30;73331;48.168;20.776;2024-01-06T08:28:57;6.94;80.42
83405;SHT30;73331;48.168;20.776;2024-01-06T08:30:28;6.88;80.54
83405;SHT30;73331;48.168;20.776;2024-01-06T08:31:58;6.78;80.96
83405;SHT30;73331;48.168;20.776;2024-01-06T08:33:29;6.64;81.75
83405;SHT30;73331;48.168;20.776;2024-01-06T08:34:59;6.61;82.36
83405;SHT30;73331;48.168;20.776;2024-01-06T08:36:29;6.85;81.71
83405;SHT30;73331;48.168;20.776;2024-01-06T08:38:00;7.02;81.13
83405;SHT30;73331;48.168;20.776;2024-01-06T08:39:31;6.98;81.54
83405;SHT30;73331;48.168;20.776;2024-01-06T08:41:02;6.77;82.64
83405;SHT30;73331;48.168;20.776;2024-01-06T08:42:32;6.63;83.62
83405;SHT30;73331;48.168;20.776;2024-01-06T08:44:03;6.45;84.05
83405;SHT30;73331;48.168;20.776;2024-01-06T08:45:34;6.33;84.50
83405;SHT30;73331;48.168;20.776;2024-01-06T08:47:05;6.48;84.01
83405;SHT30;73331;48.168;20.776;2024-01-06T08:48:36;6.33;84.15
83405;SHT30;73331;48.168;20.776;2024-01-06T08:50:07;6.34;83.92
83405;SHT30;73331;48.168;20.776;2024-01-06T08:51:38;6.54;83.81
83405;SHT30;73331;48.168;20.776;2024-01-06T08:53:08;6.64;83.18
83405;SHT30;73331;48.168;20.776;2024-01-06T08:54:39;6.58;83.35
83405;SHT30;73331;48.168;20.776;2024-01-06T08:56:09;6.45;83.90
83405;SHT30;73331;48.168;20.776;2024-01-06T08:57:40;6.38;84.20
83405;SHT30;73331;48.168;20.776;2024-01-06T08:59:10;6.30;84.18
83405;SHT30;73331;48.168;20.776;2024-01-06T09:00:41;6.58;83.59
83405;SHT30;73331;48.168;20.776;2024-01-06T09:02:11;6.91;82.05
83405;SHT30;73331;48.168;20.776;2024-01-06T09:03:42;7.16;81.15
83405;SHT30;73331;48.168;20.776;2024-01-06T09:05:13;7.19;80.91
83405;SHT30;73331;48.168;20.776;2024-01-06T09:06:43;7.12;81.22
83405;SHT30;73331;48.168;20.776;2024-01-06T09:08:14;7.06;80.55
83405;SHT30;73331;48.168;20.776;2024-01-06T09:09:44;7.14;80.54
83405;SHT30;73331;48.168;20.776;2024-01-06T09:11:15;7.09;80.98
83405;SHT30;73331;48.168;20.776;2024-01-06T09:12:45;7.25;80.41
83405;SHT30;73331;48.168;20.776;2024-01-06T09:14:17;7.02;81.81
83405;SHT30;73331;48.168;20.776;2024-01-06T09:15:48;7.05;81.60
83405;SHT30;73331;48.168;20.776;2024-01-06T09:17:18;7.04;81.82
83405;SHT30;73331;48.168;20.776;2024-01-06T09:18:49;6.98;81.45
83405;SHT30;73331;48.168;20.776;2024-01-06T09:20:20;6.88;82.08
83405;SHT30;73331;48.168;20.776;2024-01-06T09:21:53;6.64;83.65
83405;SHT30;73331;48.168;20.776;2024-01-06T09:23:24;6.58;84.41
83405;SHT30;73331;48.168;20.776;2024-01-06T09:24:55;6.75;83.36
83405;SHT30;73331;48.168;20.776;2024-01-06T09:26:25;6.91;82.95
83405;SHT30;73331;48.168;20.776;2024-01-06T09:27:56;6.78;83.80
83405;SHT30;73331;48.168;20.776;2024-01-06T09:29:27;6.58;84.54
83405;SHT30;73331;48.168;20.776;2024-01-06T09:30:57;6.57;85.29
83405;SHT30;73331;48.168;20.776;2024-01-06T09:32:28;6.61;84.77